createdAt,value
2023-03-19T00:01:10.107Z,4.68
2023-03-19T00:03:38.580Z,4.78
2023-03-19T00:06:07.322Z,3.53
2023-03-19T00:08:35.807Z,3.65
2023-03-19T00:11:08.023Z,3.90
2023-03-19T00:13:36.683Z,4.03
2023-03-19T00:16:05.216Z,4.13
2023-03-19T00:18:35.050Z,4.30
2023-03-19T00:21:03.520Z,3.95
2023-03-19T00:23:31.971Z,3.60
2023-03-19T00:26:00.449Z,4.20
2023-03-19T00:28:28.877Z,4.20
2023-03-19T00:30:57.366Z,4.10
2023-03-19T00:33:26.730Z,4.38
2023-03-19T00:35:56.549Z,4.25
2023-03-19T00:38:24.987Z,4.65
2023-03-19T00:40:53.446Z,4.10
2023-03-19T00:43:21.970Z,4.00
2023-03-19T00:45:50.453Z,4.22
2023-03-19T00:48:18.971Z,4.40
2023-03-19T00:50:47.412Z,4.68
2023-03-19T00:53:17.177Z,4.50
2023-03-19T00:55:45.648Z,4.20
2023-03-19T00:58:14.096Z,4.13
2023-03-19T01:00:42.548Z,3.90
2023-03-19T01:03:11.033Z,3.97
2023-03-19T01:05:39.509Z,3.78
2023-03-19T01:08:08.000Z,4.10
2023-03-19T01:10:37.800Z,3.45
2023-03-19T01:13:06.860Z,4.30
2023-03-19T01:15:37.502Z,4.20
2023-03-19T01:18:06.111Z,4.18
2023-03-19T01:20:34.797Z,3.90
2023-03-19T01:23:03.394Z,4.35
2023-03-19T01:25:32.079Z,4.25
2023-03-19T01:28:01.913Z,3.70
2023-03-19T01:30:30.831Z,4.38
2023-03-19T01:32:59.360Z,4.10
2023-03-19T01:35:27.877Z,3.13
2023-03-19T01:37:56.318Z,4.00
2023-03-19T01:40:24.734Z,4.10
2023-03-19T01:42:54.011Z,3.83
2023-03-19T01:45:37.160Z,4.03
2023-03-19T01:48:06.366Z,3.92
2023-03-19T01:50:39.112Z,5.53
2023-03-19T01:53:07.626Z,4.40
2023-03-19T01:55:36.288Z,4.43
2023-03-19T01:58:06.543Z,4.03
2023-03-19T02:00:37.015Z,4.70
2023-03-19T02:03:06.222Z,4.57
2023-03-19T02:05:35.885Z,4.50
2023-03-19T02:08:07.070Z,4.80
2023-03-19T02:10:35.891Z,4.68
2023-03-19T02:13:04.530Z,4.75
2023-03-19T02:15:33.036Z,4.70
2023-03-19T02:18:02.868Z,5.07
2023-03-19T02:20:34.186Z,4.53
2023-03-19T02:23:06.643Z,5.30
2023-03-19T02:25:39.543Z,5.18
2023-03-19T02:28:11.073Z,5.20
2023-03-19T02:30:39.776Z,4.88
2023-03-19T02:33:08.246Z,4.53
2023-03-19T02:35:37.033Z,4.60
2023-03-19T02:38:07.209Z,4.13
2023-03-19T02:40:37.572Z,4.88
2023-03-19T02:43:06.337Z,5.07
2023-03-19T02:45:36.276Z,4.72
2023-03-19T02:48:05.231Z,4.95
2023-03-19T02:50:33.919Z,4.85
2023-03-19T02:53:02.499Z,4.57
2023-03-19T02:55:31.016Z,4.18
2023-03-19T02:57:59.444Z,4.30
2023-03-19T03:00:28.240Z,4.32
2023-03-19T03:02:59.200Z,4.93
2023-03-19T03:05:27.785Z,4.72
2023-03-19T03:07:56.255Z,4.53
2023-03-19T03:10:24.636Z,4.38
2023-03-19T03:12:53.104Z,5.30
2023-03-19T03:15:21.600Z,4.45
2023-03-19T03:17:50.050Z,5.10
2023-03-19T03:20:20.711Z,5.22
2023-03-19T03:22:49.337Z,4.35
2023-03-19T03:25:18.100Z,5.30
2023-03-19T03:27:46.796Z,4.80
2023-03-19T03:30:16.038Z,4.20
2023-03-19T03:32:44.577Z,4.65
2023-03-19T03:35:13.091Z,4.60
2023-03-19T03:37:42.961Z,4.90
2023-03-19T03:40:11.909Z,4.75
2023-03-19T03:42:40.335Z,4.70
2023-03-19T03:45:09.639Z,4.60
2023-03-19T03:47:38.445Z,4.57
2023-03-19T03:50:07.277Z,4.68
2023-03-19T03:52:35.844Z,4.10
2023-03-19T03:55:06.005Z,4.18
2023-03-19T03:57:34.612Z,4.30
2023-03-19T04:00:03.038Z,4.28
2023-03-19T04:02:31.718Z,4.20
2023-03-19T04:05:00.232Z,4.45
2023-03-19T04:07:28.679Z,4.20
2023-03-19T04:09:59.230Z,4.28
2023-03-19T04:12:29.044Z,4.18
2023-03-19T04:14:57.536Z,4.40
2023-03-19T04:17:26.152Z,4.32
2023-03-19T04:19:54.596Z,4.28
2023-03-19T04:22:23.092Z,4.50
2023-03-19T04:24:51.568Z,4.00
2023-03-19T04:27:20.013Z,4.10
2023-03-19T04:29:49.808Z,4.30
2023-03-19T04:32:18.374Z,4.82
2023-03-19T04:34:46.824Z,4.30
2023-03-19T04:37:15.347Z,4.07
2023-03-19T04:39:44.425Z,4.20
2023-03-19T04:42:12.913Z,4.03
2023-03-19T04:44:42.112Z,4.50
2023-03-19T04:47:12.233Z,4.10
2023-03-19T04:49:40.648Z,4.10
2023-03-19T04:52:09.421Z,4.07
2023-03-19T04:54:38.079Z,3.67
2023-03-19T04:57:07.137Z,4.45
2023-03-19T04:59:35.583Z,4.50
2023-03-19T05:02:04.033Z,4.45
2023-03-19T05:04:34.020Z,4.28
2023-03-19T05:07:02.867Z,4.03
2023-03-19T05:09:31.843Z,4.13
2023-03-19T05:12:00.464Z,4.20
2023-03-19T05:14:29.345Z,4.13
2023-03-19T05:16:57.788Z,3.75
2023-03-19T05:19:26.439Z,4.07
2023-03-19T05:21:57.247Z,4.28
2023-03-19T05:24:25.708Z,3.58
2023-03-19T05:26:54.090Z,3.63
2023-03-19T05:29:22.613Z,3.60
2023-03-19T05:31:51.416Z,3.35
2023-03-19T05:34:19.874Z,3.35
2023-03-19T05:36:48.362Z,3.25
2023-03-19T05:39:18.205Z,3.83
2023-03-19T05:41:46.781Z,3.25
2023-03-19T05:44:15.234Z,4.28
2023-03-19T05:46:43.836Z,3.50
2023-03-19T05:49:12.280Z,3.25
2023-03-19T05:51:41.058Z,3.80
2023-03-19T05:54:09.663Z,4.05
2023-03-19T05:56:39.610Z,4.30
2023-03-19T05:59:08.317Z,4.70
2023-03-19T06:01:36.778Z,4.72
2023-03-19T06:04:06.288Z,4.45
2023-03-19T06:06:34.926Z,5.47
2023-03-19T06:09:03.577Z,4.60
2023-03-19T06:11:32.111Z,4.95
2023-03-19T06:14:01.938Z,4.90
2023-03-19T06:16:30.445Z,4.60
2023-03-19T06:18:59.166Z,4.55
2023-03-19T06:21:29.869Z,4.70
2023-03-19T06:23:58.380Z,4.60
2023-03-19T06:26:29.008Z,4.30
2023-03-19T06:28:57.511Z,4.60
2023-03-19T06:31:27.657Z,4.38
2023-03-19T06:33:56.396Z,4.78
2023-03-19T06:36:24.986Z,4.72
2023-03-19T06:38:53.470Z,4.45
2023-03-19T06:41:21.962Z,4.32
2023-03-19T06:43:50.603Z,4.40
2023-03-19T06:46:19.083Z,4.55
2023-03-19T06:48:48.965Z,4.60
2023-03-19T06:51:17.380Z,4.32
2023-03-19T06:53:45.985Z,5.20
2023-03-19T06:56:14.435Z,4.80
2023-03-19T06:58:43.034Z,4.13
2023-03-19T07:01:11.633Z,4.32
2023-03-19T07:03:40.546Z,5.00
2023-03-19T07:06:10.424Z,4.55
2023-03-19T07:08:39.256Z,4.63
2023-03-19T07:11:08.387Z,4.93
2023-03-19T07:13:38.046Z,4.20
2023-03-19T07:16:07.213Z,4.40
2023-03-19T07:18:35.731Z,4.75
2023-03-19T07:21:04.243Z,4.65
2023-03-19T07:23:34.233Z,4.47
2023-03-19T07:26:03.116Z,4.68
2023-03-19T07:28:31.813Z,4.60
2023-03-19T07:31:00.270Z,4.47
2023-03-19T07:33:28.715Z,4.88
2023-03-19T07:35:57.164Z,4.90
2023-03-19T07:38:25.612Z,5.30
2023-03-19T07:41:02.453Z,4.97
2023-03-19T07:43:31.516Z,4.55
2023-03-19T07:46:00.074Z,5.60
2023-03-19T07:48:28.716Z,5.95
2023-03-19T07:50:57.124Z,5.45
2023-03-19T07:53:25.547Z,5.20
2023-03-19T07:55:55.343Z,5.75
2023-03-19T07:58:23.792Z,5.65
2023-03-19T08:00:52.211Z,5.20
2023-03-19T08:03:20.649Z,5.75
2023-03-19T08:05:50.534Z,5.53
2023-03-19T08:08:19.380Z,5.53
2023-03-19T08:10:50.702Z,5.40
2023-03-19T08:13:20.543Z,5.80
2023-03-19T08:15:49.039Z,5.03
2023-03-19T08:18:18.004Z,5.78
2023-03-19T08:20:46.963Z,6.45
2023-03-19T08:23:15.489Z,5.80
2023-03-19T08:25:43.970Z,5.25
2023-03-19T08:28:12.650Z,5.53
2023-03-19T08:30:42.780Z,5.28
2023-03-19T08:33:11.343Z,4.93
2023-03-19T08:35:40.781Z,5.05
2023-03-19T08:38:10.026Z,5.53
2023-03-19T08:40:38.478Z,5.93
2023-03-19T08:43:07.370Z,5.10
2023-03-19T08:45:35.807Z,5.45
2023-03-19T08:48:05.792Z,5.10
2023-03-19T08:50:34.340Z,5.18
2023-03-19T08:53:02.952Z,4.95
2023-03-19T08:55:31.466Z,4.97
2023-03-19T08:57:59.922Z,5.38
2023-03-19T09:00:29.039Z,5.30
2023-03-19T09:02:57.512Z,5.50
2023-03-19T09:05:29.694Z,4.85
2023-03-19T09:07:58.401Z,5.40
2023-03-19T09:10:26.858Z,5.90
2023-03-19T09:12:55.387Z,5.28
2023-03-19T09:15:23.863Z,5.10
2023-03-19T09:17:52.376Z,4.65
2023-03-19T09:20:21.107Z,5.28
2023-03-19T09:22:50.902Z,4.55
2023-03-19T09:25:19.395Z,4.75
2023-03-19T09:27:47.880Z,5.43
2023-03-19T09:30:16.583Z,5.10
2023-03-19T09:32:45.181Z,6.00
2023-03-19T09:35:14.127Z,5.82
2023-03-19T09:37:42.704Z,5.60
2023-03-19T09:40:18.419Z,6.05
2023-03-19T09:42:51.339Z,5.25
2023-03-19T09:45:20.589Z,5.15
2023-03-19T09:47:51.633Z,5.25
2023-03-19T09:50:21.678Z,5.43
2023-03-19T09:52:51.471Z,5.82
2023-03-19T09:55:27.933Z,4.97
2023-03-19T09:57:58.974Z,5.15
2023-03-19T10:00:28.563Z,5.35
2023-03-19T10:03:03.397Z,5.03
2023-03-19T10:05:37.003Z,4.95
2023-03-19T10:08:27.439Z,5.10
2023-03-19T10:11:04.736Z,5.00
2023-03-19T10:13:40.785Z,5.05
2023-03-19T10:16:13.743Z,4.82
2023-03-19T10:18:46.720Z,4.55
2023-03-19T10:21:18.086Z,4.40
2023-03-19T10:23:48.323Z,5.15
2023-03-19T10:26:19.727Z,5.60
2023-03-19T10:28:57.472Z,5.20
2023-03-19T10:31:30.423Z,4.43
2023-03-19T10:34:04.073Z,4.70
2023-03-19T10:36:35.399Z,5.10
2023-03-19T10:39:06.463Z,5.88
2023-03-19T10:41:43.109Z,5.90
2023-03-19T10:44:14.359Z,6.57
2023-03-19T10:46:43.038Z,6.25
2023-03-19T10:49:14.100Z,6.38
2023-03-19T10:51:44.800Z,6.90
2023-03-19T10:54:23.747Z,6.68
2023-03-19T10:56:56.800Z,6.78
2023-03-19T10:59:27.012Z,6.90
2023-03-19T11:01:59.480Z,7.40
2023-03-19T11:04:29.721Z,6.85
2023-03-19T11:07:03.727Z,7.18
2023-03-19T11:09:34.917Z,6.53
2023-03-19T11:12:09.673Z,6.15
2023-03-19T11:14:39.096Z,6.95
2023-03-19T11:17:09.430Z,6.00
2023-03-19T11:19:42.321Z,6.63
2023-03-19T11:22:18.458Z,6.50
2023-03-19T11:24:53.309Z,6.55
2023-03-19T11:27:28.639Z,6.80
2023-03-19T11:29:57.688Z,6.05
2023-03-19T11:32:43.809Z,5.85
2023-03-19T11:35:13.260Z,6.55
2023-03-19T11:37:50.114Z,6.78
2023-03-19T11:40:33.366Z,5.82
2023-03-19T11:43:08.393Z,6.40
2023-03-19T11:45:41.521Z,7.13
2023-03-19T11:48:19.415Z,6.97
2023-03-19T11:50:51.240Z,7.35
2023-03-19T11:53:25.440Z,7.32
2023-03-19T11:55:56.569Z,6.55
2023-03-19T11:58:46.626Z,7.05
2023-03-19T12:01:20.522Z,7.10
2023-03-19T12:04:08.781Z,7.25
2023-03-19T12:06:47.653Z,6.95
2023-03-19T12:09:21.563Z,7.25
2023-03-19T12:11:54.610Z,6.78
2023-03-19T12:14:30.210Z,7.20
2023-03-19T12:17:06.961Z,7.45
2023-03-19T12:19:53.728Z,8.05
2023-03-19T12:22:27.155Z,7.85
2023-03-19T12:25:03.121Z,7.90
2023-03-19T12:27:35.139Z,7.10
2023-03-19T12:30:14.245Z,6.50
2023-03-19T12:32:54.068Z,6.32
2023-03-19T12:35:26.613Z,6.15
2023-03-19T12:37:58.825Z,5.50
2023-03-19T12:40:29.344Z,5.65
2023-03-19T12:42:59.363Z,5.63
2023-03-19T12:45:32.521Z,5.63
2023-03-19T12:48:04.322Z,4.75
2023-03-19T12:50:34.223Z,4.30
2023-03-19T12:53:04.179Z,3.90
2023-03-19T12:55:36.970Z,3.60
2023-03-19T12:58:08.011Z,3.80
2023-03-19T13:00:39.526Z,3.88
2023-03-19T13:03:09.746Z,3.90
2023-03-19T13:05:41.625Z,3.20
2023-03-19T13:08:17.145Z,3.55
2023-03-19T13:10:45.637Z,3.03
2023-03-19T13:13:25.150Z,3.30
2023-03-19T13:15:57.316Z,2.90
2023-03-19T13:18:33.290Z,3.10
2023-03-19T13:21:06.468Z,2.70
2023-03-19T13:23:36.559Z,3.50
2023-03-19T13:26:07.920Z,3.60
2023-03-19T13:28:37.516Z,4.20
2023-03-19T13:31:08.930Z,3.20
2023-03-19T13:33:38.707Z,3.00
2023-03-19T13:36:09.009Z,3.50
2023-03-19T13:38:41.062Z,3.53
2023-03-19T13:41:24.326Z,2.83
2023-03-19T13:43:56.602Z,2.95
2023-03-19T13:46:40.837Z,3.33
2023-03-19T13:49:28.130Z,3.35
2023-03-19T13:51:58.413Z,2.88
2023-03-19T13:54:37.725Z,3.75
2023-03-19T13:57:08.763Z,3.70
2023-03-19T13:59:37.754Z,4.22
2023-03-19T14:02:33.069Z,3.70
2023-03-19T14:05:03.068Z,4.45
2023-03-19T14:07:32.638Z,4.47
2023-03-19T14:10:07.087Z,4.22
2023-03-19T14:12:36.799Z,4.47
2023-03-19T14:15:17.928Z,5.03
2023-03-19T14:17:56.464Z,4.40
2023-03-19T14:20:33.680Z,4.68
2023-03-19T14:23:26.222Z,4.40
2023-03-19T14:26:06.533Z,4.10
2023-03-19T14:28:41.436Z,3.65
2023-03-19T14:31:19.777Z,3.95
2023-03-19T14:33:52.295Z,3.97
2023-03-19T14:36:22.077Z,3.92
2023-03-19T14:38:52.352Z,4.10
2023-03-19T14:41:21.910Z,3.20
2023-03-19T14:44:22.283Z,3.92
2023-03-19T14:46:58.715Z,3.70
2023-03-19T14:49:45.987Z,3.60
2023-03-19T14:52:16.476Z,3.80
2023-03-19T14:54:49.170Z,3.92
2023-03-19T14:57:19.076Z,3.63
2023-03-19T14:59:47.936Z,3.58
2023-03-19T15:02:21.622Z,3.38
2023-03-19T15:04:51.629Z,3.40
2023-03-19T15:07:21.917Z,3.17
2023-03-19T15:09:53.631Z,3.45
2023-03-19T15:12:43.468Z,3.67
2023-03-19T15:15:19.834Z,4.13
2023-03-19T15:18:03.010Z,3.35
2023-03-19T15:20:36.058Z,3.72
2023-03-19T15:23:11.038Z,3.80
2023-03-19T15:25:48.654Z,3.08
2023-03-19T15:28:18.548Z,3.22
2023-03-19T15:30:58.435Z,3.05
2023-03-19T15:33:40.077Z,3.42
2023-03-19T15:36:12.647Z,3.22
2023-03-19T15:38:42.428Z,3.00
2023-03-19T15:41:12.499Z,2.75
2023-03-19T15:43:41.595Z,2.97
2023-03-19T15:46:12.403Z,3.40
2023-03-19T15:48:43.773Z,3.60
2023-03-19T15:51:14.909Z,4.03
2023-03-19T15:53:43.509Z,4.10
2023-03-19T15:56:15.104Z,3.95
2023-03-19T15:58:47.145Z,3.60
2023-03-19T16:01:16.408Z,3.80
2023-03-19T16:03:45.993Z,3.53
2023-03-19T16:06:19.311Z,3.60
2023-03-19T16:08:48.893Z,3.40
2023-03-19T16:11:18.441Z,3.47
2023-03-19T16:13:55.224Z,3.70
2023-03-19T16:16:24.589Z,3.05
2023-03-19T16:18:53.803Z,3.00
2023-03-19T16:21:26.448Z,3.10
2023-03-19T16:23:56.967Z,3.28
2023-03-19T16:26:26.828Z,3.20
2023-03-19T16:28:59.219Z,3.20
2023-03-19T16:31:32.048Z,3.05
2023-03-19T16:34:00.873Z,3.10
2023-03-19T16:36:32.290Z,3.25
2023-03-19T16:39:15.740Z,3.45
2023-03-19T16:41:44.252Z,3.10
2023-03-19T16:44:14.557Z,3.53
2023-03-19T16:46:43.297Z,3.30
2023-03-19T16:49:11.860Z,3.70
2023-03-19T16:51:41.876Z,3.40
2023-03-19T16:54:12.072Z,3.13
2023-03-19T16:56:40.842Z,3.15
2023-03-19T16:59:11.382Z,3.20
2023-03-19T17:01:40.061Z,3.50
2023-03-19T17:04:12.428Z,3.67
2023-03-19T17:06:42.325Z,3.92
2023-03-19T17:09:11.196Z,3.85
2023-03-19T17:11:41.265Z,3.78
2023-03-19T17:14:14.947Z,3.60
2023-03-19T17:16:48.488Z,3.35
2023-03-19T17:19:19.242Z,3.70
2023-03-19T17:21:49.859Z,3.70
2023-03-19T17:24:23.343Z,4.18
2023-03-19T17:26:52.388Z,5.05
2023-03-19T17:29:23.131Z,5.72
2023-03-19T17:31:51.946Z,5.13
2023-03-19T17:34:21.904Z,5.18
2023-03-19T17:36:52.883Z,5.00
2023-03-19T17:39:21.719Z,5.65
2023-03-19T17:41:50.246Z,6.07
2023-03-19T17:44:18.728Z,4.53
2023-03-19T17:46:48.552Z,4.80
2023-03-19T17:49:21.041Z,4.60
2023-03-19T17:51:49.538Z,4.25
2023-03-19T17:54:20.028Z,3.60
2023-03-19T17:56:48.632Z,4.20
2023-03-19T17:59:17.212Z,3.78
2023-03-19T18:01:47.224Z,3.78
2023-03-19T18:04:17.084Z,3.92
2023-03-19T18:06:46.964Z,3.47
2023-03-19T18:09:20.427Z,3.08
2023-03-19T18:11:50.675Z,3.65
2023-03-19T18:14:19.475Z,4.30
2023-03-19T18:16:48.125Z,3.55
2023-03-19T18:19:20.595Z,4.00
2023-03-19T18:21:49.282Z,3.75
2023-03-19T18:24:17.796Z,3.85
2023-03-19T18:26:46.291Z,4.05
2023-03-19T18:29:16.571Z,4.13
2023-03-19T18:31:46.090Z,3.65
2023-03-19T18:34:15.749Z,4.35
2023-03-19T18:36:44.417Z,3.83
2023-03-19T18:39:13.930Z,4.13
2023-03-19T18:41:42.760Z,4.13
2023-03-19T18:44:12.359Z,3.85
2023-03-19T18:46:42.780Z,4.35
2023-03-19T18:49:17.187Z,4.50
2023-03-19T18:52:01.177Z,6.35
2023-03-19T18:54:31.923Z,7.25
2023-03-19T18:57:01.397Z,6.80
2023-03-19T18:59:32.512Z,8.07
2023-03-19T19:02:03.206Z,10.88
2023-03-19T19:04:31.944Z,12.05
2023-03-19T19:07:01.708Z,14.02
2023-03-19T19:09:30.174Z,14.20
2023-03-19T19:12:01.025Z,13.45
2023-03-19T19:14:30.197Z,13.55
2023-03-19T19:16:58.847Z,14.57
2023-03-19T19:19:29.123Z,14.05
2023-03-19T19:21:57.627Z,15.25
2023-03-19T19:24:26.161Z,15.65
2023-03-19T19:26:55.630Z,15.07
2023-03-19T19:29:25.579Z,14.60
2023-03-19T19:31:54.557Z,14.15
2023-03-19T19:34:23.388Z,15.57
2023-03-19T19:36:55.506Z,14.75
2023-03-19T19:39:24.008Z,15.35
2023-03-19T19:41:53.556Z,14.93
2023-03-19T19:44:22.202Z,15.52
2023-03-19T19:46:53.329Z,15.95
2023-03-19T19:49:23.191Z,13.23
2023-03-19T19:51:53.030Z,14.45
2023-03-19T19:54:21.766Z,15.20
2023-03-19T19:56:50.317Z,14.10
2023-03-19T19:59:18.861Z,15.23
2023-03-19T20:01:47.647Z,14.77
2023-03-19T20:04:16.626Z,14.98
2023-03-19T20:06:45.830Z,15.45
2023-03-19T20:09:16.185Z,16.05
2023-03-19T20:11:45.879Z,15.13
2023-03-19T20:14:15.409Z,15.52
2023-03-19T20:16:44.214Z,16.02
2023-03-19T20:19:19.036Z,16.67
2023-03-19T20:21:47.742Z,17.25
2023-03-19T20:24:18.398Z,16.23
2023-03-19T20:26:46.881Z,15.07
2023-03-19T20:29:16.614Z,14.10
2023-03-19T20:31:46.262Z,14.05
2023-03-19T20:34:25.525Z,13.32
2023-03-19T20:37:01.329Z,15.65
2023-03-19T20:39:31.260Z,14.70
2023-03-19T20:41:59.706Z,13.75
2023-03-19T20:44:28.994Z,14.65
2023-03-19T20:46:59.029Z,14.82
2023-03-19T20:49:29.094Z,14.35
2023-03-19T20:51:57.562Z,14.43
2023-03-19T20:54:26.139Z,14.57
2023-03-19T20:56:56.336Z,15.68
2023-03-19T20:59:26.860Z,15.07
2023-03-19T21:01:56.590Z,14.20
2023-03-19T21:04:25.209Z,15.63
2023-03-19T21:06:54.593Z,15.73
2023-03-19T21:09:24.160Z,15.38
2023-03-19T21:11:53.812Z,15.00
2023-03-19T21:14:27.024Z,15.35
2023-03-19T21:16:56.221Z,15.63
2023-03-19T21:19:25.057Z,17.15
2023-03-19T21:21:53.898Z,15.63
2023-03-19T21:24:22.756Z,15.45
2023-03-19T21:26:51.561Z,15.68
2023-03-19T21:29:23.824Z,16.25
2023-03-19T21:31:54.785Z,17.27
2023-03-19T21:34:24.476Z,16.85
2023-03-19T21:36:52.970Z,15.45
2023-03-19T21:39:22.383Z,16.73
2023-03-19T21:41:51.294Z,15.82
2023-03-19T21:47:06.674Z,17.08
2023-03-19T21:49:35.889Z,17.48
2023-03-19T21:52:04.724Z,17.90
2023-03-19T21:54:33.364Z,17.92
2023-03-19T21:57:02.353Z,16.58
2023-03-19T21:59:33.821Z,15.52
2023-03-19T22:02:04.392Z,16.25
2023-03-19T22:04:34.513Z,14.88
2023-03-19T22:07:03.293Z,14.63
2023-03-19T22:09:32.068Z,15.45
2023-03-19T22:12:00.883Z,14.93
2023-03-19T22:14:30.206Z,14.90
2023-03-19T22:16:59.423Z,14.35
2023-03-19T22:19:28.384Z,15.15
2023-03-19T22:21:58.366Z,15.75
2023-03-19T22:24:27.066Z,15.10
2023-03-19T22:26:58.820Z,14.13
2023-03-19T22:29:27.552Z,14.55
2023-03-19T22:31:57.308Z,14.93
2023-03-19T22:34:27.849Z,14.07
2023-03-19T22:36:56.518Z,14.55
2023-03-19T22:39:26.864Z,14.10
2023-03-19T22:41:55.665Z,14.82
2023-03-19T22:44:26.518Z,14.50
2023-03-19T22:46:55.972Z,15.02
2023-03-19T22:49:24.869Z,15.45
2023-03-19T22:51:53.396Z,16.60
2023-03-19T22:54:21.934Z,17.38
2023-03-19T22:56:51.770Z,16.80
2023-03-19T22:59:20.249Z,17.90
2023-03-19T23:01:49.214Z,18.08
2023-03-19T23:04:20.829Z,18.73
2023-03-19T23:06:49.488Z,16.52
2023-03-19T23:09:18.717Z,16.02
2023-03-19T23:11:48.205Z,16.05
2023-03-19T23:14:28.938Z,15.15
2023-03-19T23:17:01.620Z,16.20
2023-03-19T23:19:31.003Z,17.50
2023-03-19T23:22:00.194Z,18.70
2023-03-19T23:24:30.534Z,20.48
2023-03-19T23:27:00.048Z,18.88
2023-03-19T23:29:32.418Z,17.40
2023-03-19T23:32:01.000Z,19.00
2023-03-19T23:34:29.654Z,19.02
2023-03-19T23:37:00.007Z,18.63
2023-03-19T23:39:28.916Z,18.40
2023-03-19T23:41:58.789Z,17.27
2023-03-19T23:44:29.052Z,16.95
2023-03-19T23:47:00.943Z,16.45
2023-03-19T23:49:30.266Z,15.00
2023-03-19T23:51:58.987Z,14.40
2023-03-19T23:54:29.648Z,14.07
2023-03-19T23:56:59.657Z,12.25
2023-03-19T23:59:28.591Z,13.15
